Time;durP1;ratioP1;P1;durP2;ratioP2;P2;SDS_P1;SDS_P2;PMS_P1;PMS_P2;Temp;Humidity;BMP_temperature;BMP_pressure;BME280_temperature;BME280_humidity;BME280_pressure;Samples;Min_cycle;Max_cycle;Signal;HPM_P1;HPM_P2
2023/02/20 00:02:39;;;;;;;9.15;6.68;;;;;;;4.74;78.18;101295.84;10173003;29;20044;-76
2023/02/20 00:07:42;;;;;;;8.77;7.13;;;;;;;5.03;77.90;101277.81;10194990;29;20051;-79
2023/02/20 00:12:46;;;;;;;8.77;6.22;;;;;;;5.06;76.76;101288.31;10198015;29;20469;-78
2023/02/20 00:17:49;;;;;;;12.60;8.82;;;;;;;5.14;77.33;101283.53;10208947;28;20063;-77
2023/02/20 00:22:53;;;;;;;11.07;7.72;;;;;;;5.17;76.64;101285.19;10194068;29;20088;-79
2023/02/20 00:27:57;;;;;;;12.45;9.40;;;;;;;4.92;78.10;101264.06;10184535;29;20109;-78
2023/02/20 00:33:00;;;;;;;12.90;8.77;;;;;;;5.44;75.62;101272.44;10196115;29;20103;-78
2023/02/20 00:38:03;;;;;;;12.82;9.95;;;;;;;5.00;77.00;101260.16;10221732;29;20107;-78
2023/02/20 00:43:07;;;;;;;16.40;9.68;;;;;;;5.11;76.16;101269.47;10191518;29;20076;-78
2023/02/20 00:48:10;;;;;;;16.02;11.38;;;;;;;4.78;76.73;101256.66;10170264;29;20052;-76
2023/02/20 00:53:12;;;;;;;19.50;11.88;;;;;;;4.98;76.46;101246.00;10170081;29;20064;-78
2023/02/20 00:58:17;;;;;;;14.05;9.15;;;;;;;4.94;76.84;101233.78;10175613;29;20055;-78
2023/02/20 01:03:19;;;;;;;12.93;8.25;;;;;;;4.80;77.50;101230.81;10163768;29;20077;-78
2023/02/20 01:08:22;;;;;;;15.18;10.70;;;;;;;4.75;78.18;101215.06;10172786;29;20507;-79
2023/02/20 01:13:27;;;;;;;14.80;9.40;;;;;;;4.62;78.02;101190.78;10167750;29;20048;-80
2023/02/20 01:18:30;;;;;;;18.17;9.43;;;;;;;4.67;78.52;101217.19;10162579;29;20045;-78
2023/02/20 01:23:33;;;;;;;16.40;9.98;;;;;;;4.97;77.34;101224.78;10164750;29;20048;-78
2023/02/20 01:28:37;;;;;;;16.33;11.25;;;;;;;4.62;78.30;101205.88;10171318;29;20499;-79
2023/02/20 01:33:41;;;;;;;19.42;12.30;;;;;;;4.75;78.17;101209.75;10187703;29;20059;-79
2023/02/20 01:38:47;;;;;;;14.48;10.27;;;;;;;4.78;78.58;101204.28;10159426;29;20116;-78
2023/02/20 01:43:51;;;;;;;12.30;7.80;;;;;;;4.61;78.62;101185.53;10177658;29;20068;-78
2023/02/20 01:48:59;;;;;;;14.05;8.48;;;;;;;4.79;77.49;101181.19;10179826;29;20057;-77
2023/02/20 01:54:02;;;;;;;15.98;10.35;;;;;;;4.99;77.39;101157.25;10174308;29;20052;-78
2023/02/20 01:59:09;;;;;;;15.25;10.35;;;;;;;5.15;76.11;101140.53;10174406;29;20052;-78
2023/02/20 02:04:13;;;;;;;14.63;9.48;;;;;;;4.88;76.99;101155.94;10163779;29;20048;-78
2023/02/20 02:09:22;;;;;;;13.18;7.70;;;;;;;4.74;77.22;101141.44;10176865;29;20054;-78
2023/02/20 02:14:26;;;;;;;15.20;9.50;;;;;;;4.57;78.63;101128.91;10188749;29;20052;-76
2023/02/20 02:19:49;;;;;;;20.95;12.05;;;;;;;4.49;78.78;101128.38;10195848;29;20640;-77
2023/02/20 02:25:13;;;;;;;;;;;;;;;4.79;77.15;101107.50;10196299;29;20052;-78
2023/02/20 02:30:54;;;;;;;23.27;15.23;;;;;;;4.96;77.98;101098.75;10190117;29;20410;-76
2023/02/20 02:36:13;;;;;;;22.98;13.60;;;;;;;4.80;78.42;101108.38;10163876;29;20061;-79
2023/02/20 02:41:22;;;;;;;19.00;11.43;;;;;;;4.84;78.06;101104.66;10177701;29;20059;-78
2023/02/20 02:46:31;;;;;;;23.23;14.10;;;;;;;4.43;80.16;101099.38;10177383;29;20440;-79
2023/02/20 02:51:44;;;;;;;19.40;10.05;;;;;;;4.52;79.30;101071.50;10187335;29;20052;-78
2023/02/20 02:56:48;;;;;;;23.58;12.65;;;;;;;4.78;78.80;101087.16;10173061;29;20051;-79
2023/02/20 03:01:55;;;;;;;18.90;10.65;;;;;;;4.88;78.72;101074.28;10161881;29;20056;-77
2023/02/20 03:07:05;;;;;;;18.38;9.45;;;;;;;4.58;79.15;101082.75;10160213;29;20392;-80
2023/02/20 03:12:12;;;;;;;24.20;13.65;;;;;;;5.21;77.66;101079.00;10158675;29;20055;-77
2023/02/20 03:17:26;;;;;;;21.55;12.32;;;;;;;5.36;76.59;101056.09;10197602;29;20036;-76
2023/02/20 03:22:36;;;;;;;17.42;9.85;;;;;;;5.11;77.38;101049.28;10206063;28;20040;-76
2023/02/20 03:27:50;;;;;;;20.73;11.93;;;;;;;5.38;76.47;101046.22;10172100;29;20142;-79
2023/02/20 03:43:48;;;;;;;16.02;8.48;;;;;;;5.05;78.11;101050.44;10173054;29;20419;-78
2023/02/20 03:48:55;;;;;;;26.50;13.30;;;;;;;5.70;76.04;101055.28;10173240;29;20068;-78
2023/02/20 03:54:01;;;;;;;26.00;12.93;;;;;;;5.37;76.90;101052.47;10168813;29;20048;-78
2023/02/20 03:59:11;;;;;;;21.48;11.80;;;;;;;5.27;77.29;101047.59;10175660;29;20051;-78
2023/02/20 04:04:19;;;;;;;23.20;12.23;;;;;;;5.39;77.52;101035.47;10161275;29;20049;-79
2023/02/20 04:09:28;;;;;;;20.88;8.45;;;;;;;5.37;76.90;101033.81;10153267;29;20447;-79
2023/02/20 04:14:32;;;;;;;14.45;7.50;;;;;;;5.11;77.83;101008.47;10184107;29;20040;-79
2023/02/20 04:19:37;;;;;;;25.42;9.40;;;;;;;5.10;77.42;101004.06;10174079;29;20104;-79
2023/02/20 04:24:47;;;;;;;22.48;11.35;;;;;;;5.32;77.64;101002.09;10179863;29;20128;-76
2023/02/20 04:29:50;;;;;;;18.80;8.80;;;;;;;5.39;76.46;100976.00;10196693;29;20057;-79
2023/02/20 04:34:53;;;;;;;25.00;11.77;;;;;;;5.41;76.87;100971.47;10163506;29;20044;-79
2023/02/20 04:39:58;;;;;;;29.70;11.40;;;;;;;5.18;77.21;100962.78;10175546;29;20063;-79
2023/02/20 04:45:02;;;;;;;25.33;11.57;;;;;;;5.53;75.98;100964.66;10190178;29;20055;-75
2023/02/20 04:50:06;;;;;;;24.08;11.63;;;;;;;5.19;77.35;100967.22;10206907;28;20043;-78
2023/02/20 04:55:11;;;;;;;22.27;10.82;;;;;;;5.03;76.89;100953.78;10198404;28;20039;-75
2023/02/20 05:00:15;;;;;;;22.30;9.82;;;;;;;5.58;75.36;100939.50;10195881;28;20051;-78
2023/02/20 05:05:20;;;;;;;24.70;8.90;;;;;;;5.01;77.32;100934.34;10187088;29;20104;-77
2023/02/20 05:10:26;;;;;;;20.38;9.05;;;;;;;5.34;76.05;100924.75;10187517;23;20115;-79
2023/02/20 05:15:30;;;;;;;24.17;8.35;;;;;;;5.09;76.93;100919.78;10176885;29;20073;-79
2023/02/20 05:26:10;;;;;;;16.90;9.85;;;;;;;4.88;77.44;100943.81;10133903;29;20044;-79
2023/02/20 05:31:14;;;;;;;14.70;8.18;;;;;;;5.10;76.71;100922.41;10164521;29;20423;-78
2023/02/20 05:36:19;;;;;;;17.65;8.07;;;;;;;5.22;76.58;100902.25;10173084;29;20040;-80
2023/02/20 05:41:23;;;;;;;15.95;9.73;;;;;;;5.25;76.58;100913.63;10176911;29;20044;-78
2023/02/20 05:46:27;;;;;;;19.55;8.95;;;;;;;5.06;77.62;100902.16;10169135;29;20044;-79
2023/02/20 05:51:30;;;;;;;16.45;8.48;;;;;;;5.23;77.19;100894.19;10174583;29;20084;-79
2023/02/20 05:56:41;;;;;;;14.65;7.80;;;;;;;5.01;77.74;100896.19;10174005;29;20051;-79
2023/02/20 06:01:44;;;;;;;17.77;8.93;;;;;;;5.14;77.68;100888.47;10176071;29;20067;-80
2023/02/20 06:06:46;;;;;;;19.30;8.95;;;;;;;5.44;75.67;100891.38;10171834;29;20044;-78
2023/02/20 06:11:52;;;;;;;20.23;9.70;;;;;;;5.14;77.50;100893.81;10177320;29;20071;-79
2023/02/20 06:16:56;;;;;;;17.45;9.38;;;;;;;4.89;79.03;100886.13;10175563;29;20692;-79
2023/02/20 06:22:00;;;;;;;21.35;10.43;;;;;;;5.10;78.36;100869.13;10171858;29;20420;-78
2023/02/20 06:27:07;;;;;;;22.73;10.82;;;;;;;4.99;78.41;100882.97;10177665;29;20044;-79
2023/02/20 06:32:10;;;;;;;25.80;10.95;;;;;;;4.87;79.36;100885.34;10172140;29;20036;-79
2023/02/20 06:37:13;;;;;;;20.90;11.23;;;;;;;5.11;78.47;100892.16;10178058;29;20380;-79
2023/02/20 06:42:17;;;;;;;26.65;14.00;;;;;;;4.92;79.32;100905.47;10178566;29;20123;-79
2023/02/20 06:47:20;;;;;;;29.08;17.67;;;;;;;4.88;79.29;100913.69;10174343;29;20071;-78
2023/02/20 06:52:23;;;;;;;29.50;14.50;;;;;;;5.02;78.56;100913.94;10186136;29;20093;-80
2023/02/20 06:57:27;;;;;;;33.83;19.73;;;;;;;4.97;78.71;100924.75;10186983;28;20040;-78
2023/02/20 07:02:29;;;;;;;31.40;15.65;;;;;;;4.51;80.55;100904.81;10181042;29;20076;-77
2023/02/20 07:07:32;;;;;;;48.95;24.05;;;;;;;4.86;79.71;100920.91;10171101;29;20127;-79
2023/02/20 07:12:38;;;;;;;29.63;17.38;;;;;;;5.15;78.72;100909.69;10169988;29;20064;-78
2023/02/20 07:17:41;;;;;;;33.58;18.48;;;;;;;4.62;79.71;100911.34;10168787;29;20127;-78
2023/02/20 07:22:49;;;;;;;36.85;21.58;;;;;;;4.77;79.55;100898.22;10162066;29;20048;-78
2023/02/20 07:27:53;;;;;;;49.40;27.83;;;;;;;4.76;79.68;100915.16;10174361;29;20179;-78
2023/02/20 07:32:56;;;;;;;40.15;23.60;;;;;;;4.53;80.61;100919.78;10173082;29;20130;-79
2023/02/20 07:37:59;;;;;;;40.03;22.70;;;;;;;4.74;80.17;100932.97;10171991;29;20068;-79
2023/02/20 07:43:03;;;;;;;44.13;24.13;;;;;;;4.75;80.28;100930.25;10172743;29;20067;-78
2023/02/20 07:48:06;;;;;;;42.17;24.65;;;;;;;4.74;79.85;100911.69;10174242;29;20047;-79
2023/02/20 07:53:10;;;;;;;37.40;20.80;;;;;;;4.83;79.75;100917.44;10189306;29;20044;-79
2023/02/20 07:58:14;;;;;;;40.78;26.52;;;;;;;4.68;80.24;100925.31;10185920;29;20036;-78
2023/02/20 08:03:17;;;;;;;41.13;21.35;;;;;;;4.83;79.61;100929.91;10196527;29;20052;-79
2023/02/20 08:08:23;;;;;;;38.10;19.35;;;;;;;4.88;79.42;100934.97;10185329;29;20503;-79
2023/02/20 08:13:27;;;;;;;43.10;24.92;;;;;;;5.08;79.00;100939.38;10146851;29;20131;-79
2023/02/20 08:18:30;;;;;;;35.33;20.48;;;;;;;5.23;77.96;100914.63;10141403;29;20056;-80
2023/02/20 08:23:33;;;;;;;36.38;22.15;;;;;;;4.67;78.59;100908.47;10143451;29;20079;-79
2023/02/20 08:28:37;;;;;;;28.95;16.50;;;;;;;5.11;78.24;100925.91;10143418;29;20067;-78
2023/02/20 08:33:40;;;;;;;44.22;23.75;;;;;;;4.88;78.75;100930.50;10146091;29;20040;-80
2023/02/20 08:38:43;;;;;;;42.67;25.05;;;;;;;4.73;80.21;100894.88;10140294;29;20052;-78
2023/02/20 08:43:47;;;;;;;25.65;14.95;;;;;;;4.79;79.14;100905.19;10140841;29;20148;-78
2023/02/20 08:48:50;;;;;;;28.85;17.00;;;;;;;4.94;79.37;100916.91;10143478;29;20070;-76
2023/02/20 08:53:53;;;;;;;37.28;20.45;;;;;;;4.79;80.03;100901.69;10140347;29;20443;-77
2023/02/20 08:58:57;;;;;;;32.83;20.77;;;;;;;4.58;80.84;100907.13;10137420;29;20044;-79
2023/02/20 09:04:01;;;;;;;32.10;18.02;;;;;;;4.43;81.53;100907.84;10129721;29;20045;-78
2023/02/20 09:09:04;;;;;;;31.63;14.88;;;;;;;4.98;79.24;100889.19;10137063;29;20107;-79
2023/02/20 09:14:09;;;;;;;33.22;18.10;;;;;;;4.44;82.08;100896.25;10140353;29;20052;-78
2023/02/20 09:19:14;;;;;;;28.20;17.45;;;;;;;4.73;81.10;100888.69;10143184;29;20056;-79
2023/02/20 09:24:16;;;;;;;27.65;14.15;;;;;;;4.77;81.55;100892.91;10148824;29;20058;-78
2023/02/20 09:29:21;;;;;;;30.83;17.27;;;;;;;5.10;80.00;100881.56;10165605;29;20056;-77
2023/02/20 09:34:24;;;;;;;38.20;18.08;;;;;;;4.95;80.93;100875.19;10147019;29;20696;-79
2023/02/20 09:39:27;;;;;;;38.63;16.27;;;;;;;4.65;81.50;100846.47;10158003;29;20052;-79
2023/02/20 09:44:41;;;;;;;37.53;19.98;;;;;;;5.08;80.19;100867.47;10197260;28;20051;-78
2023/02/20 09:49:43;;;;;;;35.95;20.73;;;;;;;5.26;80.59;100848.72;10117356;29;20135;-79
2023/02/20 09:54:53;;;;;;;49.65;27.63;;;;;;;5.27;80.01;100844.28;10107855;29;20271;-78
2023/02/20 10:00:04;;;;;;;34.50;17.38;;;;;;;4.97;81.27;100836.88;10103747;29;20079;-77
2023/02/20 10:05:19;;;;;;;48.85;28.67;;;;;;;5.22;80.73;100852.50;10138052;29;20063;-79
2023/02/20 10:10:24;;;;;;;51.28;27.00;;;;;;;5.14;81.47;100851.19;10115263;29;20568;-78
2023/02/20 10:15:36;;;;;;;50.00;29.10;;;;;;;5.45;80.24;100858.44;10132451;29;20052;-79
2023/02/20 10:20:50;;;;;;;48.70;23.67;;;;;;;5.24;80.92;100850.63;10130430;29;20692;-79
2023/02/20 10:25:56;;;;;;;47.67;26.55;;;;;;;4.96;82.25;100836.97;10101245;29;20082;-78
2023/02/20 10:31:09;;;;;;;54.70;26.63;;;;;;;5.32;81.05;100825.38;10119714;29;20492;-78
2023/02/20 10:36:18;;;;;;;56.00;25.85;;;;;;;5.23;81.88;100826.72;10121159;29;20060;-78
2023/02/20 10:41:30;;;;;;;51.38;27.08;;;;;;;5.49;81.29;100809.41;10113235;29;20689;-80
2023/02/20 10:46:40;;;;;;;49.22;24.63;;;;;;;5.39;81.09;100827.66;10125058;29;20047;-80
2023/02/20 10:51:57;;;;;;;48.35;22.73;;;;;;;5.35;81.92;100871.41;10132775;29;20056;-81
2023/02/20 10:57:06;;;;;;;50.40;27.50;;;;;;;5.27;82.93;100865.59;10120706;29;20048;-79
2023/02/20 11:02:18;;;;;;;44.58;24.73;;;;;;;5.16;83.38;100874.13;10148699;29;20052;-78
2023/02/20 11:07:22;;;;;;;50.83;26.08;;;;;;;5.25;83.17;100863.00;10172845;29;20052;-79
2023/02/20 11:12:30;;;;;;;42.15;17.92;;;;;;;5.72;81.45;100835.66;10157037;29;20096;-78
2023/02/20 11:17:38;;;;;;;40.90;20.75;;;;;;;5.11;83.93;100851.34;10152784;29;20086;-78
2023/02/20 11:22:44;;;;;;;48.50;27.45;;;;;;;5.31;83.90;100827.19;10152359;29;20047;-77
2023/02/20 11:27:50;;;;;;;53.53;26.52;;;;;;;5.30;83.56;100827.28;10156532;29;20066;-77
2023/02/20 11:33:03;;;;;;;33.97;17.75;;;;;;;5.38;83.63;100833.09;10135951;29;20047;-79
2023/02/20 11:38:24;;;;;;;;;;;;;;;5.28;83.52;100806.91;10146508;29;20059;-77
2023/02/20 11:43:30;;;;;;;40.65;21.88;;;;;;;5.35;84.19;100783.47;10147259;29;19982;-78
2023/02/20 11:48:35;;;;;;;41.35;22.52;;;;;;;5.60;83.12;100812.34;10136393;29;20081;-78
2023/02/20 11:53:37;;;;;;;40.88;24.73;;;;;;;5.90;81.93;100806.31;10127329;29;20068;-78
2023/02/20 11:58:41;;;;;;;44.58;22.05;;;;;;;5.72;83.06;100782.34;10141452;29;20056;-78
2023/02/20 12:03:55;;;;;;;39.70;22.40;;;;;;;5.87;82.35;100782.44;10119946;29;20083;-79
2023/02/20 12:08:59;;;;;;;34.50;17.88;;;;;;;5.99;82.43;100736.44;10134450;29;20055;-79
2023/02/20 12:14:11;;;;;;;40.03;18.00;;;;;;;5.92;82.91;100767.94;10128226;29;21139;-80
2023/02/20 12:19:19;;;;;;;39.92;19.42;;;;;;;5.89;82.83;100773.41;10111157;29;20409;-79
2023/02/20 12:24:53;;;;;;;28.27;13.75;;;;;;;5.77;83.61;100765.25;10102787;29;20056;-79
2023/02/20 12:30:06;;;;;;;40.15;21.63;;;;;;;6.21;82.31;100768.09;10116286;29;21203;-80
2023/02/20 12:35:33;;;;;;;39.35;18.70;;;;;;;6.21;81.99;100780.59;10144417;29;20048;-79
2023/02/20 12:40:50;;;;;;;40.03;22.95;;;;;;;6.03;83.13;100782.47;10109627;29;20187;-78
2023/02/20 12:46:03;;;;;;;39.55;18.65;;;;;;;6.13;83.08;100778.34;10125147;29;20050;-78
2023/02/20 12:51:27;;;;;;;33.20;15.15;;;;;;;6.17;82.04;100787.88;10133370;29;20511;-80
2023/02/20 12:56:41;;;;;;;39.90;19.88;;;;;;;6.21;82.44;100783.25;10139406;29;20450;-78
2023/02/20 13:01:44;;;;;;;37.78;19.48;;;;;;;6.39;82.48;100760.88;10145203;29;20764;-79
2023/02/20 13:06:56;;;;;;;23.30;13.85;;;;;;;6.06;84.47;100775.19;10127618;29;20051;-79
2023/02/20 13:12:04;;;;;;;25.70;14.73;;;;;;;6.22;84.69;100755.63;10122267;29;20115;-78
2023/02/20 13:17:21;;;;;;;32.38;17.45;;;;;;;6.09;85.69;100760.81;10113980;29;20640;-79
2023/02/20 13:22:25;;;;;;;18.85;10.27;;;;;;;6.07;86.04;100752.03;10130944;29;20048;-78
2023/02/20 13:27:30;;;;;;;25.15;12.20;;;;;;;5.96;85.88;100733.97;10136706;29;20054;-78
2023/02/20 13:32:33;;;;;;;31.02;16.73;;;;;;;6.20;86.17;100754.84;10129540;29;20048;-78
2023/02/20 13:38:09;;;;;;;28.67;13.80;;;;;;;6.13;86.08;100754.34;10136336;29;20058;-78
2023/02/20 13:43:25;;;;;;;22.08;12.23;;;;;;;5.80;86.89;100719.75;10101444;29;20061;-79
2023/02/20 13:48:43;;;;;;;32.83;15.95;;;;;;;5.76;86.58;100737.75;10101574;29;21326;-78
2023/02/20 13:53:50;;;;;;;23.52;13.05;;;;;;;6.17;86.01;100729.19;10104715;29;20048;-78
2023/02/20 13:58:57;;;;;;;29.55;14.45;;;;;;;6.13;86.08;100725.00;10101905;29;20055;-77
2023/02/20 14:04:01;;;;;;;23.02;13.35;;;;;;;6.43;84.44;100710.84;10099406;29;20515;-77
2023/02/20 14:09:10;;;;;;;29.25;14.93;;;;;;;6.08;86.41;100714.59;10100872;29;20505;-77
2023/02/20 14:14:26;;;;;;;32.25;16.88;;;;;;;5.98;87.53;100704.53;10098377;29;20060;-79
2023/02/20 14:19:29;;;;;;;27.40;13.50;;;;;;;6.18;87.47;100707.78;10096553;29;20048;-78
2023/02/20 14:24:33;;;;;;;30.50;17.33;;;;;;;6.13;88.02;100709.84;10097007;29;20428;-77
2023/02/20 14:29:37;;;;;;;20.92;11.65;;;;;;;6.31;86.76;100717.75;10096498;29;22090;-77
2023/02/20 14:34:50;;;;;;;33.05;18.45;;;;;;;6.67;85.50;100698.72;10153760;29;20059;-78
2023/02/20 14:40:02;;;;;;;21.75;11.35;;;;;;;5.92;89.25;100700.41;10154058;29;20063;-76
2023/02/20 14:45:09;;;;;;;;;;;;;;;6.18;89.09;100705.13;10134161;29;20071;-79
2023/02/20 14:50:17;;;;;;;24.50;12.82;;;;;;;5.61;91.37;100685.28;10143457;29;19927;-79
2023/02/20 14:55:25;;;;;;;32.08;14.35;;;;;;;5.93;91.97;100703.00;10152781;29;20680;-78
2023/02/20 15:00:34;;;;;;;26.52;14.82;;;;;;;5.71;92.77;100695.34;10124719;29;20105;-78
2023/02/20 15:05:43;;;;;;;29.70;14.90;;;;;;;5.80;92.73;100699.28;10159783;29;20062;-80
2023/02/20 15:10:49;;;;;;;26.92;14.40;;;;;;;5.94;93.42;100715.38;10171133;29;20127;-79
2023/02/20 15:16:03;;;;;;;39.88;19.02;;;;;;;5.94;92.76;100709.19;10166883;29;20047;-78
2023/02/20 15:21:09;;;;;;;33.60;18.52;;;;;;;5.83;93.63;100690.25;10189446;28;20059;-78
2023/02/20 15:26:31;;;;;;;33.67;17.80;;;;;;;6.08;91.77;100709.25;10147724;29;20158;-78
2023/02/20 15:31:34;;;;;;;30.40;15.98;;;;;;;5.89;93.92;100697.91;10144859;29;20048;-78
2023/02/20 15:36:37;;;;;;;23.38;11.55;;;;;;;5.61;95.55;100709.25;10154460;29;20051;-79
2023/02/20 15:41:41;;;;;;;19.50;9.40;;;;;;;5.61;94.52;100722.59;10160664;29;20052;-79
2023/02/20 15:46:44;;;;;;;16.92;9.07;;;;;;;6.02;93.70;100703.41;10142764;29;21479;-76
2023/02/20 15:51:47;;;;;;;32.78;16.67;;;;;;;5.71;95.77;100708.66;10147007;29;20059;-80
2023/02/20 15:56:52;;;;;;;31.83;15.10;;;;;;;5.69;96.70;100709.69;10099028;29;20072;-79
2023/02/20 16:01:55;;;;;;;26.05;15.25;;;;;;;5.73;95.87;100706.78;10103772;29;20083;-80
2023/02/20 16:06:58;;;;;;;32.67;13.82;;;;;;;5.81;94.75;100708.16;10091288;29;20071;-80
2023/02/20 16:12:02;;;;;;;22.95;11.43;;;;;;;5.75;95.65;100725.34;10099468;29;20053;-79
2023/02/20 16:17:05;;;;;;;22.05;11.25;;;;;;;5.87;95.15;100730.00;10102800;29;20048;-79
2023/02/20 16:22:09;;;;;;;22.77;11.88;;;;;;;5.79;96.31;100726.91;10102513;29;20099;-79
2023/02/20 16:27:19;;;;;;;22.02;11.85;;;;;;;5.71;96.64;100734.47;10138774;29;20094;-78
2023/02/20 16:32:28;;;;;;;21.90;11.00;;;;;;;5.61;97.95;100739.44;10167123;29;20426;-78
2023/02/20 16:37:31;;;;;;;28.35;15.63;;;;;;;5.76;96.97;100732.41;10140225;29;20107;-78
2023/02/20 16:42:37;;;;;;;31.40;15.13;;;;;;;5.99;96.42;100722.25;10150693;29;20055;-79
2023/02/20 16:47:41;;;;;;;31.60;17.33;;;;;;;5.96;96.71;100725.97;10149105;29;20071;-80
2023/02/20 16:52:44;;;;;;;31.88;14.25;;;;;;;5.87;94.83;100727.34;10149738;29;20732;-79
2023/02/20 16:57:48;;;;;;;19.58;10.32;;;;;;;5.86;96.82;100719.41;10141952;29;20047;-80
2023/02/20 17:02:52;;;;;;;23.48;10.00;;;;;;;5.73;97.34;100732.56;10160417;29;21276;-77
2023/02/20 17:07:55;;;;;;;28.88;14.23;;;;;;;5.78;97.30;100737.66;10158200;29;20053;-79
2023/02/20 17:12:59;;;;;;;21.67;9.05;;;;;;;5.75;97.99;100743.16;10152130;29;20539;-78
2023/02/20 17:18:02;;;;;;;25.77;13.48;;;;;;;5.95;98.25;100742.88;10140239;29;20052;-80
2023/02/20 17:23:05;;;;;;;23.63;11.13;;;;;;;5.94;96.83;100750.03;10152787;29;20207;-80
2023/02/20 17:28:11;;;;;;;27.30;12.73;;;;;;;5.65;98.21;100751.66;10163751;29;20060;-80
2023/02/20 17:33:14;;;;;;;28.58;15.95;;;;;;;5.83;98.23;100752.44;10137453;29;21185;-79
2023/02/20 17:38:17;;;;;;;31.80;15.32;;;;;;;5.92;96.90;100757.28;10158350;29;20128;-80
2023/02/20 17:43:21;;;;;;;34.30;15.30;;;;;;;5.98;96.59;100768.53;10148298;29;20525;-80
2023/02/20 17:48:24;;;;;;;38.13;20.02;;;;;;;6.10;96.88;100747.38;10157167;29;20060;-81
2023/02/20 17:53:27;;;;;;;27.67;13.02;;;;;;;6.09;95.75;100747.47;10148708;29;21249;-80
2023/02/20 17:58:31;;;;;;;35.25;20.80;;;;;;;5.87;98.75;100755.78;10137751;29;20551;-80
2023/02/20 18:03:34;;;;;;;35.25;16.40;;;;;;;6.09;95.75;100747.47;10115786;29;20508;-80
2023/02/20 18:08:37;;;;;;;35.15;14.93;;;;;;;6.31;94.63;100744.44;10127237;29;20080;-79
2023/02/20 18:13:41;;;;;;;29.73;15.77;;;;;;;5.82;97.38;100757.88;10142158;29;20048;-79
2023/02/20 18:18:44;;;;;;;36.67;17.33;;;;;;;6.18;95.96;100745.13;10149005;29;20055;-80
2023/02/20 18:23:46;;;;;;;28.15;13.25;;;;;;;5.71;98.09;100742.47;10157709;29;20063;-78
2023/02/20 18:28:51;;;;;;;41.60;22.35;;;;;;;5.91;98.17;100741.34;10172984;29;20056;-78
2023/02/20 18:33:54;;;;;;;43.85;22.02;;;;;;;6.13;96.14;100744.53;10156174;29;20052;-79
2023/02/20 18:38:57;;;;;;;40.92;18.88;;;;;;;5.87;98.64;100748.66;10140214;29;20063;-79
2023/02/20 18:44:01;;;;;;;47.65;22.45;;;;;;;6.16;96.27;100743.50;10153406;29;20053;-79
2023/02/20 18:49:04;;;;;;;48.88;23.67;;;;;;;5.78;98.36;100742.97;10153233;29;20171;-80
2023/02/20 18:54:10;;;;;;;45.92;22.40;;;;;;;5.95;97.95;100741.09;10160673;29;20062;-78
2023/02/20 18:59:14;;;;;;;50.78;22.70;;;;;;;6.15;97.24;100745.31;10145147;29;20059;-79
2023/02/20 19:04:17;;;;;;;55.03;26.60;;;;;;;5.94;97.69;100738.50;10137574;29;20119;-79
2023/02/20 19:09:22;;;;;;;67.80;31.10;;;;;;;6.09;97.65;100727.00;10153748;29;20113;-79
2023/02/20 19:14:26;;;;;;;51.08;22.98;;;;;;;5.86;98.00;100738.94;10152685;29;20076;-79
2023/02/20 19:19:33;;;;;;;62.17;27.45;;;;;;;6.02;97.97;100736.28;10147369;29;20613;-80
2023/02/20 19:24:38;;;;;;;51.28;23.30;;;;;;;6.05;96.96;100719.25;10138073;29;20040;-79
2023/02/20 19:29:44;;;;;;;54.70;24.77;;;;;;;5.93;99.26;100710.13;10128619;29;20049;-79
2023/02/20 19:34:47;;;;;;;61.65;24.40;;;;;;;6.10;97.88;100718.03;10124970;29;20063;-77
2023/02/20 19:39:50;;;;;;;85.32;34.65;;;;;;;6.15;97.90;100715.97;10157159;29;20175;-78
2023/02/20 19:44:54;;;;;;;71.90;29.73;;;;;;;6.28;95.82;100717.91;10172575;29;20075;-80
2023/02/20 19:49:57;;;;;;;56.33;21.67;;;;;;;5.98;98.05;100718.75;10151923;29;20051;-79
2023/02/20 19:55:00;;;;;;;89.07;37.42;;;;;;;6.44;96.42;100696.53;10178899;29;20055;-79
2023/02/20 20:00:05;;;;;;;98.20;38.28;;;;;;;6.09;95.53;100707.47;10112959;29;21614;-80
2023/02/20 20:05:15;;;;;;;56.03;24.30;;;;;;;6.17;95.58;100698.06;10163353;29;20039;-79
2023/02/20 20:10:20;;;;;;;86.47;34.30;;;;;;;6.25;96.37;100691.41;10162484;29;20479;-79
2023/02/20 20:15:27;;;;;;;106.40;43.17;;;;;;;6.44;95.42;100704.53;10152982;29;20075;-79
2023/02/20 20:20:31;;;;;;;55.00;25.65;;;;;;;5.94;95.97;100701.19;10165419;29;20107;-80
2023/02/20 20:25:35;;;;;;;91.55;38.13;;;;;;;6.16;96.35;100707.00;10150756;29;20048;-80
2023/02/20 20:30:40;;;;;;;90.55;38.85;;;;;;;6.31;94.82;100710.63;10129091;29;21835;-80
2023/02/20 20:35:42;;;;;;;73.18;32.38;;;;;;;6.32;95.07;100700.78;10168465;29;20577;-81
2023/02/20 20:40:45;;;;;;;59.53;25.52;;;;;;;6.25;94.46;100700.28;10154144;29;20095;-80
2023/02/20 20:45:49;;;;;;;74.15;34.42;;;;;;;5.93;96.10;100684.31;10153676;29;20047;-81
2023/02/20 20:50:53;;;;;;;79.78;30.05;;;;;;;6.47;93.56;100670.53;10145047;29;20056;-82
2023/02/20 20:55:55;;;;;;;100.00;34.17;;;;;;;6.23;93.96;100659.50;10164500;28;20103;-79
2023/02/20 21:01:00;;;;;;;58.67;25.40;;;;;;;6.17;94.44;100673.19;10121018;29;20048;-80
2023/02/20 21:06:03;;;;;;;63.40;26.20;;;;;;;6.25;94.43;100656.72;10175270;29;20122;-81
2023/02/20 21:11:06;;;;;;;93.60;40.85;;;;;;;6.41;93.96;100652.22;10173816;29;20040;-79
2023/02/20 21:16:10;;;;;;;77.63;31.48;;;;;;;6.43;93.57;100655.66;10158881;29;20056;-79
2023/02/20 21:21:13;;;;;;;65.93;27.30;;;;;;;6.33;94.06;100660.66;10133985;29;20058;-81
2023/02/20 21:26:16;;;;;;;76.32;32.78;;;;;;;6.36;94.38;100649.84;10137569;29;21197;-81
2023/02/20 21:31:21;;;;;;;62.67;29.35;;;;;;;6.11;95.53;100665.53;10145440;29;20058;-81
2023/02/20 21:36:24;;;;;;;66.10;34.05;;;;;;;5.99;96.86;100650.25;10148788;29;20716;-78
2023/02/20 21:46:50;;;;;;;60.58;25.15;;;;;;;6.32;94.68;100655.44;10162974;29;20051;-79
2023/02/20 21:51:53;;;;;;;91.80;36.22;;;;;;;6.60;92.44;100639.47;10170783;29;20134;-80
2023/02/20 21:56:57;;;;;;;89.53;43.50;;;;;;;6.49;93.81;100635.75;10148043;29;20082;-79
